sensor_id;sensor_type;location;lat;lon;timestamp;P1;durP1;ratioP1;P2;durP2;ratioP2
76863;SDS011;65834;52.364;9.754;2023-09-08T00:01:37;10.60;;;5.05;;
76863;SDS011;65834;52.364;9.754;2023-09-08T00:04:09;13.50;;;5.22;;
76863;SDS011;65834;52.364;9.754;2023-09-08T00:06:39;10.88;;;5.05;;
76863;SDS011;65834;52.364;9.754;2023-09-08T00:09:09;13.88;;;5.50;;
76863;SDS011;65834;52.364;9.754;2023-09-08T00:11:38;13.88;;;5.20;;
76863;SDS011;65834;52.364;9.754;2023-09-08T00:14:08;11.45;;;5.38;;
76863;SDS011;65834;52.364;9.754;2023-09-08T00:16:38;11.02;;;5.40;;
76863;SDS011;65834;52.364;9.754;2023-09-08T00:19:12;12.90;;;5.32;;
76863;SDS011;65834;52.364;9.754;2023-09-08T00:21:41;11.45;;;5.30;;
76863;SDS011;65834;52.364;9.754;2023-09-08T00:24:12;13.27;;;5.28;;
76863;SDS011;65834;52.364;9.754;2023-09-08T00:26:41;13.70;;;5.55;;
76863;SDS011;65834;52.364;9.754;2023-09-08T00:29:11;12.65;;;5.75;;
76863;SDS011;65834;52.364;9.754;2023-09-08T00:31:41;14.50;;;5.88;;
76863;SDS011;65834;52.364;9.754;2023-09-08T00:34:13;12.35;;;5.60;;
76863;SDS011;65834;52.364;9.754;2023-09-08T00:36:43;11.10;;;5.63;;
76863;SDS011;65834;52.364;9.754;2023-09-08T00:39:12;11.27;;;5.35;;
76863;SDS011;65834;52.364;9.754;2023-09-08T00:41:42;11.35;;;5.65;;
76863;SDS011;65834;52.364;9.754;2023-09-08T00:44:12;13.27;;;5.55;;
76863;SDS011;65834;52.364;9.754;2023-09-08T00:46:41;11.52;;;5.32;;
76863;SDS011;65834;52.364;9.754;2023-09-08T00:49:14;13.18;;;5.82;;
76863;SDS011;65834;52.364;9.754;2023-09-08T00:51:44;12.63;;;5.57;;
76863;SDS011;65834;52.364;9.754;2023-09-08T00:54:15;12.38;;;5.75;;
76863;SDS011;65834;52.364;9.754;2023-09-08T00:56:44;13.23;;;5.55;;
76863;SDS011;65834;52.364;9.754;2023-09-08T00:59:18;13.00;;;5.38;;
76863;SDS011;65834;52.364;9.754;2023-09-08T01:01:48;12.93;;;5.40;;
76863;SDS011;65834;52.364;9.754;2023-09-08T01:04:20;12.73;;;5.78;;
76863;SDS011;65834;52.364;9.754;2023-09-08T01:09:20;11.90;;;5.55;;
76863;SDS011;65834;52.364;9.754;2023-09-08T01:11:50;12.23;;;5.32;;
76863;SDS011;65834;52.364;9.754;2023-09-08T01:14:22;13.02;;;6.03;;
76863;SDS011;65834;52.364;9.754;2023-09-08T01:16:51;11.75;;;5.00;;
76863;SDS011;65834;52.364;9.754;2023-09-08T01:19:23;12.02;;;5.70;;
76863;SDS011;65834;52.364;9.754;2023-09-08T01:27:49;13.02;;;5.30;;
76863;SDS011;65834;52.364;9.754;2023-09-08T01:30:20;12.90;;;5.80;;
76863;SDS011;65834;52.364;9.754;2023-09-08T01:32:52;13.63;;;5.63;;
76863;SDS011;65834;52.364;9.754;2023-09-08T01:35:23;12.02;;;5.65;;
76863;SDS011;65834;52.364;9.754;2023-09-08T01:37:54;13.23;;;6.15;;
76863;SDS011;65834;52.364;9.754;2023-09-08T01:40:26;15.02;;;5.70;;
76863;SDS011;65834;52.364;9.754;2023-09-08T01:42:55;13.43;;;6.50;;
76863;SDS011;65834;52.364;9.754;2023-09-08T01:45:25;13.73;;;6.20;;
76863;SDS011;65834;52.364;9.754;2023-09-08T01:47:55;14.02;;;6.18;;
76863;SDS011;65834;52.364;9.754;2023-09-08T01:50:25;13.35;;;6.43;;
76863;SDS011;65834;52.364;9.754;2023-09-08T01:52:54;12.02;;;5.75;;
76863;SDS011;65834;52.364;9.754;2023-09-08T01:55:26;12.70;;;6.18;;
76863;SDS011;65834;52.364;9.754;2023-09-08T01:57:56;11.70;;;5.50;;
76863;SDS011;65834;52.364;9.754;2023-09-08T02:00:28;12.43;;;5.97;;
76863;SDS011;65834;52.364;9.754;2023-09-08T02:02:58;13.30;;;6.20;;
76863;SDS011;65834;52.364;9.754;2023-09-08T02:05:28;12.48;;;5.93;;
76863;SDS011;65834;52.364;9.754;2023-09-08T02:07:58;13.38;;;6.50;;
76863;SDS011;65834;52.364;9.754;2023-09-08T02:10:33;14.15;;;6.07;;
76863;SDS011;65834;52.364;9.754;2023-09-08T02:15:58;12.13;;;5.38;;
76863;SDS011;65834;52.364;9.754;2023-09-08T02:18:34;13.18;;;6.00;;
76863;SDS011;65834;52.364;9.754;2023-09-08T02:21:04;13.70;;;6.70;;
76863;SDS011;65834;52.364;9.754;2023-09-08T02:23:34;12.90;;;6.40;;
76863;SDS011;65834;52.364;9.754;2023-09-08T02:26:06;14.07;;;6.93;;
76863;SDS011;65834;52.364;9.754;2023-09-08T02:28:35;13.10;;;6.65;;
76863;SDS011;65834;52.364;9.754;2023-09-08T02:31:06;12.65;;;6.70;;
76863;SDS011;65834;52.364;9.754;2023-09-08T02:33:36;14.82;;;6.63;;
76863;SDS011;65834;52.364;9.754;2023-09-08T02:36:07;14.90;;;7.22;;
76863;SDS011;65834;52.364;9.754;2023-09-08T02:38:39;15.80;;;7.35;;
76863;SDS011;65834;52.364;9.754;2023-09-08T02:41:11;15.10;;;6.43;;
76863;SDS011;65834;52.364;9.754;2023-09-08T02:43:40;14.82;;;7.00;;
76863;SDS011;65834;52.364;9.754;2023-09-08T02:46:10;12.90;;;7.18;;
76863;SDS011;65834;52.364;9.754;2023-09-08T02:48:40;14.07;;;6.57;;
76863;SDS011;65834;52.364;9.754;2023-09-08T02:51:10;14.77;;;6.97;;
76863;SDS011;65834;52.364;9.754;2023-09-08T02:53:40;12.98;;;6.28;;
76863;SDS011;65834;52.364;9.754;2023-09-08T02:56:12;13.43;;;6.97;;
76863;SDS011;65834;52.364;9.754;2023-09-08T02:58:42;13.93;;;6.45;;
76863;SDS011;65834;52.364;9.754;2023-09-08T03:01:12;15.35;;;7.60;;
76863;SDS011;65834;52.364;9.754;2023-09-08T03:03:47;14.35;;;7.10;;
76863;SDS011;65834;52.364;9.754;2023-09-08T03:06:19;14.87;;;8.47;;
76863;SDS011;65834;52.364;9.754;2023-09-08T03:08:49;16.63;;;7.60;;
76863;SDS011;65834;52.364;9.754;2023-09-08T03:11:21;16.55;;;8.18;;
76863;SDS011;65834;52.364;9.754;2023-09-08T03:13:51;16.33;;;6.88;;
76863;SDS011;65834;52.364;9.754;2023-09-08T03:16:21;14.60;;;6.80;;
76863;SDS011;65834;52.364;9.754;2023-09-08T03:18:51;14.60;;;7.63;;
76863;SDS011;65834;52.364;9.754;2023-09-08T03:21:20;16.25;;;8.00;;
76863;SDS011;65834;52.364;9.754;2023-09-08T03:23:50;14.43;;;6.85;;
76863;SDS011;65834;52.364;9.754;2023-09-08T03:26:23;17.70;;;7.65;;
76863;SDS011;65834;52.364;9.754;2023-09-08T03:28:53;14.13;;;7.28;;
76863;SDS011;65834;52.364;9.754;2023-09-08T03:31:23;14.98;;;7.65;;
76863;SDS011;65834;52.364;9.754;2023-09-08T03:33:53;14.80;;;7.85;;
76863;SDS011;65834;52.364;9.754;2023-09-08T03:36:23;16.13;;;7.82;;
76863;SDS011;65834;52.364;9.754;2023-09-08T03:38:53;15.52;;;7.72;;
76863;SDS011;65834;52.364;9.754;2023-09-08T03:41:27;16.10;;;8.07;;
76863;SDS011;65834;52.364;9.754;2023-09-08T03:43:57;15.00;;;7.47;;
76863;SDS011;65834;52.364;9.754;2023-09-08T03:46:26;17.27;;;8.43;;
76863;SDS011;65834;52.364;9.754;2023-09-08T03:48:56;15.38;;;7.72;;
76863;SDS011;65834;52.364;9.754;2023-09-08T03:51:27;14.27;;;7.30;;
76863;SDS011;65834;52.364;9.754;2023-09-08T03:53:57;15.68;;;8.07;;
76863;SDS011;65834;52.364;9.754;2023-09-08T03:56:33;15.02;;;7.75;;
76863;SDS011;65834;52.364;9.754;2023-09-08T03:59:02;15.85;;;7.47;;
76863;SDS011;65834;52.364;9.754;2023-09-08T04:01:32;14.45;;;7.43;;
76863;SDS011;65834;52.364;9.754;2023-09-08T04:04:02;17.20;;;7.53;;
76863;SDS011;65834;52.364;9.754;2023-09-08T04:06:32;13.95;;;7.82;;
76863;SDS011;65834;52.364;9.754;2023-09-08T04:09:02;15.32;;;8.38;;
76863;SDS011;65834;52.364;9.754;2023-09-08T04:11:35;16.70;;;7.95;;
76863;SDS011;65834;52.364;9.754;2023-09-08T04:14:05;17.83;;;8.80;;
76863;SDS011;65834;52.364;9.754;2023-09-08T04:16:34;16.95;;;7.88;;
76863;SDS011;65834;52.364;9.754;2023-09-08T04:19:04;16.45;;;8.25;;
76863;SDS011;65834;52.364;9.754;2023-09-08T04:21:33;16.42;;;8.18;;
76863;SDS011;65834;52.364;9.754;2023-09-08T04:24:04;15.73;;;8.25;;
76863;SDS011;65834;52.364;9.754;2023-09-08T04:26:39;14.82;;;7.40;;
76863;SDS011;65834;52.364;9.754;2023-09-08T04:29:09;17.15;;;9.00;;
76863;SDS011;65834;52.364;9.754;2023-09-08T04:31:39;16.38;;;8.10;;
76863;SDS011;65834;52.364;9.754;2023-09-08T04:34:09;15.23;;;8.07;;
76863;SDS011;65834;52.364;9.754;2023-09-08T04:36:38;15.90;;;7.90;;
76863;SDS011;65834;52.364;9.754;2023-09-08T04:39:08;15.05;;;7.90;;
76863;SDS011;65834;52.364;9.754;2023-09-08T04:41:41;16.70;;;8.32;;
76863;SDS011;65834;52.364;9.754;2023-09-08T04:44:10;15.93;;;7.78;;
76863;SDS011;65834;52.364;9.754;2023-09-08T04:46:40;16.75;;;8.05;;
76863;SDS011;65834;52.364;9.754;2023-09-08T04:49:10;15.68;;;7.65;;
76863;SDS011;65834;52.364;9.754;2023-09-08T04:51:40;14.90;;;7.93;;
76863;SDS011;65834;52.364;9.754;2023-09-08T04:54:10;14.55;;;7.05;;
76863;SDS011;65834;52.364;9.754;2023-09-08T04:56:43;15.57;;;7.55;;
76863;SDS011;65834;52.364;9.754;2023-09-08T04:59:13;14.07;;;7.35;;
76863;SDS011;65834;52.364;9.754;2023-09-08T05:01:43;16.48;;;7.40;;
76863;SDS011;65834;52.364;9.754;2023-09-08T05:04:13;16.33;;;7.10;;
76863;SDS011;65834;52.364;9.754;2023-09-08T05:06:43;15.25;;;6.90;;
76863;SDS011;65834;52.364;9.754;2023-09-08T05:09:15;16.52;;;7.43;;
76863;SDS011;65834;52.364;9.754;2023-09-08T05:11:47;14.57;;;7.63;;
76863;SDS011;65834;52.364;9.754;2023-09-08T05:14:17;15.00;;;7.15;;
76863;SDS011;65834;52.364;9.754;2023-09-08T05:16:46;14.70;;;7.32;;
76863;SDS011;65834;52.364;9.754;2023-09-08T05:19:25;16.60;;;7.90;;
76863;SDS011;65834;52.364;9.754;2023-09-08T05:21:55;17.25;;;8.27;;
76863;SDS011;65834;52.364;9.754;2023-09-08T05:24:25;16.50;;;7.10;;
76863;SDS011;65834;52.364;9.754;2023-09-08T05:26:58;16.60;;;7.70;;
76863;SDS011;65834;52.364;9.754;2023-09-08T05:29:28;14.32;;;7.47;;
76863;SDS011;65834;52.364;9.754;2023-09-08T05:31:58;14.70;;;6.45;;
76863;SDS011;65834;52.364;9.754;2023-09-08T05:34:27;16.13;;;7.18;;
76863;SDS011;65834;52.364;9.754;2023-09-08T05:36:57;17.65;;;8.32;;
76863;SDS011;65834;52.364;9.754;2023-09-08T05:39:27;17.23;;;7.60;;
76863;SDS011;65834;52.364;9.754;2023-09-08T05:42:00;16.77;;;7.53;;
76863;SDS011;65834;52.364;9.754;2023-09-08T05:44:30;16.08;;;7.82;;
76863;SDS011;65834;52.364;9.754;2023-09-08T05:46:59;14.77;;;7.68;;
76863;SDS011;65834;52.364;9.754;2023-09-08T05:49:29;17.20;;;8.60;;
76863;SDS011;65834;52.364;9.754;2023-09-08T05:52:03;17.15;;;8.63;;
76863;SDS011;65834;52.364;9.754;2023-09-08T05:54:34;16.52;;;7.68;;
76863;SDS011;65834;52.364;9.754;2023-09-08T05:57:06;15.80;;;7.50;;
76863;SDS011;65834;52.364;9.754;2023-09-08T05:59:36;15.48;;;8.27;;
76863;SDS011;65834;52.364;9.754;2023-09-08T06:02:08;16.17;;;8.80;;
76863;SDS011;65834;52.364;9.754;2023-09-08T06:04:38;16.58;;;7.38;;
76863;SDS011;65834;52.364;9.754;2023-09-08T06:07:08;16.75;;;7.93;;
76863;SDS011;65834;52.364;9.754;2023-09-08T06:09:37;16.33;;;7.75;;
76863;SDS011;65834;52.364;9.754;2023-09-08T06:12:10;17.10;;;8.20;;
76863;SDS011;65834;52.364;9.754;2023-09-08T06:14:39;16.50;;;7.30;;
76863;SDS011;65834;52.364;9.754;2023-09-08T06:17:11;17.00;;;7.93;;
76863;SDS011;65834;52.364;9.754;2023-09-08T06:19:40;16.58;;;7.35;;
76863;SDS011;65834;52.364;9.754;2023-09-08T06:22:11;18.10;;;7.93;;
76863;SDS011;65834;52.364;9.754;2023-09-08T06:24:42;14.68;;;7.45;;
76863;SDS011;65834;52.364;9.754;2023-09-08T06:27:14;17.27;;;8.07;;
76863;SDS011;65834;52.364;9.754;2023-09-08T06:29:44;18.02;;;7.63;;
76863;SDS011;65834;52.364;9.754;2023-09-08T06:32:14;17.05;;;7.88;;
76863;SDS011;65834;52.364;9.754;2023-09-08T06:34:46;16.77;;;7.55;;
76863;SDS011;65834;52.364;9.754;2023-09-08T06:37:16;17.02;;;7.45;;
76863;SDS011;65834;52.364;9.754;2023-09-08T06:39:45;18.40;;;7.72;;
76863;SDS011;65834;52.364;9.754;2023-09-08T06:42:17;16.17;;;7.72;;
76863;SDS011;65834;52.364;9.754;2023-09-08T06:44:55;17.17;;;8.10;;
76863;SDS011;65834;52.364;9.754;2023-09-08T06:47:24;17.25;;;7.63;;
76863;SDS011;65834;52.364;9.754;2023-09-08T06:49:54;14.55;;;7.68;;
76863;SDS011;65834;52.364;9.754;2023-09-08T06:52:24;16.23;;;7.15;;
76863;SDS011;65834;52.364;9.754;2023-09-08T06:54:54;16.67;;;7.82;;
76863;SDS011;65834;52.364;9.754;2023-09-08T06:57:26;16.33;;;7.70;;
76863;SDS011;65834;52.364;9.754;2023-09-08T06:59:56;17.02;;;7.70;;
76863;SDS011;65834;52.364;9.754;2023-09-08T07:02:25;15.57;;;7.38;;
76863;SDS011;65834;52.364;9.754;2023-09-08T07:04:55;15.40;;;8.10;;
76863;SDS011;65834;52.364;9.754;2023-09-08T07:07:26;14.85;;;7.85;;
76863;SDS011;65834;52.364;9.754;2023-09-08T07:09:56;17.48;;;7.68;;
76863;SDS011;65834;52.364;9.754;2023-09-08T07:12:30;13.25;;;6.85;;
76863;SDS011;65834;52.364;9.754;2023-09-08T07:17:29;18.23;;;8.23;;
76863;SDS011;65834;52.364;9.754;2023-09-08T07:19:59;14.05;;;6.85;;
76863;SDS011;65834;52.364;9.754;2023-09-08T07:22:29;13.88;;;6.72;;
76863;SDS011;65834;52.364;9.754;2023-09-08T07:24:59;16.05;;;6.97;;
76863;SDS011;65834;52.364;9.754;2023-09-08T07:27:31;13.45;;;6.25;;
76863;SDS011;65834;52.364;9.754;2023-09-08T07:32:32;13.75;;;6.10;;
76863;SDS011;65834;52.364;9.754;2023-09-08T07:35:03;13.25;;;6.25;;
76863;SDS011;65834;52.364;9.754;2023-09-08T07:37:42;13.02;;;6.45;;
76863;SDS011;65834;52.364;9.754;2023-09-08T07:40:12;13.23;;;5.68;;
76863;SDS011;65834;52.364;9.754;2023-09-08T07:42:44;13.77;;;6.45;;
76863;SDS011;65834;52.364;9.754;2023-09-08T07:45:14;12.63;;;5.80;;
76863;SDS011;65834;52.364;9.754;2023-09-08T07:47:44;13.65;;;6.13;;
76863;SDS011;65834;52.364;9.754;2023-09-08T07:50:17;13.18;;;6.55;;
76863;SDS011;65834;52.364;9.754;2023-09-08T07:52:49;16.35;;;6.78;;
76863;SDS011;65834;52.364;9.754;2023-09-08T07:55:20;14.23;;;6.57;;
76863;SDS011;65834;52.364;9.754;2023-09-08T07:57:57;15.82;;;6.78;;
76863;SDS011;65834;52.364;9.754;2023-09-08T08:00:27;14.88;;;6.57;;
76863;SDS011;65834;52.364;9.754;2023-09-08T08:02:57;13.65;;;6.07;;
76863;SDS011;65834;52.364;9.754;2023-09-08T08:05:27;13.05;;;5.75;;
76863;SDS011;65834;52.364;9.754;2023-09-08T08:07:57;12.40;;;5.80;;
76863;SDS011;65834;52.364;9.754;2023-09-08T08:10:28;14.48;;;6.43;;
76863;SDS011;65834;52.364;9.754;2023-09-08T08:13:01;13.15;;;6.30;;
76863;SDS011;65834;52.364;9.754;2023-09-08T08:15:37;14.00;;;5.80;;
76863;SDS011;65834;52.364;9.754;2023-09-08T08:18:07;12.60;;;5.88;;
76863;SDS011;65834;52.364;9.754;2023-09-08T08:20:39;15.35;;;5.72;;
76863;SDS011;65834;52.364;9.754;2023-09-08T08:23:09;12.32;;;5.65;;
76863;SDS011;65834;52.364;9.754;2023-09-08T08:25:38;12.20;;;5.50;;
76863;SDS011;65834;52.364;9.754;2023-09-08T08:28:11;10.60;;;5.03;;
76863;SDS011;65834;52.364;9.754;2023-09-08T08:30:41;12.65;;;4.97;;
76863;SDS011;65834;52.364;9.754;2023-09-08T08:33:14;11.70;;;5.50;;
76863;SDS011;65834;52.364;9.754;2023-09-08T08:35:48;12.13;;;5.20;;
76863;SDS011;65834;52.364;9.754;2023-09-08T08:38:18;11.07;;;5.07;;
76863;SDS011;65834;52.364;9.754;2023-09-08T08:40:45;12.50;;;5.57;;
76863;SDS011;65834;52.364;9.754;2023-09-08T08:43:17;11.95;;;5.68;;
76863;SDS011;65834;52.364;9.754;2023-09-08T08:45:48;10.40;;;4.68;;
76863;SDS011;65834;52.364;9.754;2023-09-08T08:48:19;12.27;;;5.50;;
76863;SDS011;65834;52.364;9.754;2023-09-08T08:50:52;14.13;;;5.60;;
76863;SDS011;65834;52.364;9.754;2023-09-08T08:53:22;12.57;;;5.82;;
76863;SDS011;65834;52.364;9.754;2023-09-08T08:55:53;12.82;;;5.40;;
76863;SDS011;65834;52.364;9.754;2023-09-08T08:58:28;11.00;;;5.60;;
76863;SDS011;65834;52.364;9.754;2023-09-08T09:00:59;12.73;;;5.22;;
76863;SDS011;65834;52.364;9.754;2023-09-08T09:03:31;10.67;;;5.20;;
76863;SDS011;65834;52.364;9.754;2023-09-08T09:06:01;12.68;;;5.63;;
76863;SDS011;65834;52.364;9.754;2023-09-08T09:08:31;11.70;;;5.00;;
76863;SDS011;65834;52.364;9.754;2023-09-08T09:11:02;11.65;;;4.93;;
76863;SDS011;65834;52.364;9.754;2023-09-08T09:13:34;12.15;;;5.70;;
76863;SDS011;65834;52.364;9.754;2023-09-08T09:16:04;12.68;;;5.78;;
76863;SDS011;65834;52.364;9.754;2023-09-08T09:18:51;12.77;;;5.45;;
76863;SDS011;65834;52.364;9.754;2023-09-08T09:21:23;11.30;;;5.25;;
76863;SDS011;65834;52.364;9.754;2023-09-08T09:23:53;12.10;;;5.10;;
76863;SDS011;65834;52.364;9.754;2023-09-08T09:26:25;13.05;;;5.22;;
76863;SDS011;65834;52.364;9.754;2023-09-08T09:28:58;11.43;;;5.50;;
76863;SDS011;65834;52.364;9.754;2023-09-08T09:31:29;11.70;;;4.95;;
76863;SDS011;65834;52.364;9.754;2023-09-08T09:34:02;10.95;;;5.25;;
76863;SDS011;65834;52.364;9.754;2023-09-08T09:36:33;12.23;;;5.10;;
76863;SDS011;65834;52.364;9.754;2023-09-08T09:39:03;12.55;;;5.25;;
76863;SDS011;65834;52.364;9.754;2023-09-08T09:41:33;13.57;;;5.63;;
76863;SDS011;65834;52.364;9.754;2023-09-08T09:44:06;14.52;;;5.47;;
76863;SDS011;65834;52.364;9.754;2023-09-08T09:49:06;12.35;;;5.65;;
76863;SDS011;65834;52.364;9.754;2023-09-08T09:51:40;12.43;;;5.07;;
76863;SDS011;65834;52.364;9.754;2023-09-08T09:54:11;11.68;;;5.22;;
76863;SDS011;65834;52.364;9.754;2023-09-08T09:56:41;13.95;;;5.68;;
76863;SDS011;65834;52.364;9.754;2023-09-08T09:59:19;12.15;;;5.85;;
76863;SDS011;65834;52.364;9.754;2023-09-08T10:01:49;13.35;;;5.68;;
76863;SDS011;65834;52.364;9.754;2023-09-08T10:04:19;12.95;;;5.53;;
76863;SDS011;65834;52.364;9.754;2023-09-08T10:06:50;13.25;;;5.75;;
76863;SDS011;65834;52.364;9.754;2023-09-08T10:09:20;13.18;;;5.70;;
76863;SDS011;65834;52.364;9.754;2023-09-08T10:11:51;12.77;;;5.50;;
76863;SDS011;65834;52.364;9.754;2023-09-08T10:14:27;12.27;;;5.63;;
76863;SDS011;65834;52.364;9.754;2023-09-08T10:16:59;12.50;;;5.57;;
76863;SDS011;65834;52.364;9.754;2023-09-08T10:19:32;12.88;;;5.90;;
76863;SDS011;65834;52.364;9.754;2023-09-08T10:22:11;10.13;;;4.93;;
76863;SDS011;65834;52.364;9.754;2023-09-08T10:24:44;10.30;;;4.80;;
76863;SDS011;65834;52.364;9.754;2023-09-08T10:27:16;12.52;;;4.63;;
76863;SDS011;65834;52.364;9.754;2023-09-08T10:29:51;10.10;;;4.63;;
76863;SDS011;65834;52.364;9.754;2023-09-08T10:32:22;13.30;;;5.22;;
76863;SDS011;65834;52.364;9.754;2023-09-08T10:34:52;11.02;;;4.97;;
76863;SDS011;65834;52.364;9.754;2023-09-08T10:37:24;12.73;;;5.10;;
76863;SDS011;65834;52.364;9.754;2023-09-08T10:39:56;11.55;;;5.40;;
76863;SDS011;65834;52.364;9.754;2023-09-08T10:42:45;13.23;;;4.95;;
76863;SDS011;65834;52.364;9.754;2023-09-08T10:45:18;13.88;;;5.38;;
76863;SDS011;65834;52.364;9.754;2023-09-08T10:47:55;9.85;;;4.47;;
76863;SDS011;65834;52.364;9.754;2023-09-08T10:50:30;12.55;;;5.30;;
76863;SDS011;65834;52.364;9.754;2023-09-08T10:53:08;12.13;;;5.25;;
76863;SDS011;65834;52.364;9.754;2023-09-08T10:55:41;10.10;;;4.28;;
76863;SDS011;65834;52.364;9.754;2023-09-08T10:58:32;11.80;;;5.05;;
76863;SDS011;65834;52.364;9.754;2023-09-08T11:01:13;10.55;;;4.60;;
76863;SDS011;65834;52.364;9.754;2023-09-08T11:03:46;11.00;;;4.80;;
76863;SDS011;65834;52.364;9.754;2023-09-08T11:06:18;13.88;;;4.85;;
76863;SDS011;65834;52.364;9.754;2023-09-08T11:08:50;9.68;;;4.32;;
76863;SDS011;65834;52.364;9.754;2023-09-08T11:11:23;10.55;;;4.40;;
76863;SDS011;65834;52.364;9.754;2023-09-08T11:13:53;11.75;;;4.40;;
76863;SDS011;65834;52.364;9.754;2023-09-08T11:16:29;10.77;;;4.63;;
76863;SDS011;65834;52.364;9.754;2023-09-08T11:19:00;12.93;;;4.78;;
76863;SDS011;65834;52.364;9.754;2023-09-08T11:21:36;10.27;;;4.85;;
76863;SDS011;65834;52.364;9.754;2023-09-08T11:24:07;10.40;;;4.22;;
76863;SDS011;65834;52.364;9.754;2023-09-08T11:26:41;9.48;;;4.13;;
76863;SDS011;65834;52.364;9.754;2023-09-08T11:29:13;10.77;;;4.60;;
76863;SDS011;65834;52.364;9.754;2023-09-08T11:31:45;10.93;;;4.53;;
76863;SDS011;65834;52.364;9.754;2023-09-08T11:34:21;11.80;;;4.70;;
76863;SDS011;65834;52.364;9.754;2023-09-08T11:36:50;12.38;;;4.75;;
76863;SDS011;65834;52.364;9.754;2023-09-08T11:39:22;11.35;;;4.88;;
76863;SDS011;65834;52.364;9.754;2023-09-08T11:41:52;10.93;;;4.43;;
76863;SDS011;65834;52.364;9.754;2023-09-08T11:44:22;11.77;;;4.80;;
76863;SDS011;65834;52.364;9.754;2023-09-08T11:46:55;9.07;;;4.50;;
76863;SDS011;65834;52.364;9.754;2023-09-08T11:49:26;10.95;;;5.13;;
76863;SDS011;65834;52.364;9.754;2023-09-08T11:51:56;10.48;;;4.75;;
76863;SDS011;65834;52.364;9.754;2023-09-08T11:54:29;9.68;;;4.28;;
76863;SDS011;65834;52.364;9.754;2023-09-08T11:57:00;10.57;;;4.55;;
76863;SDS011;65834;52.364;9.754;2023-09-08T11:59:32;11.18;;;4.63;;
76863;SDS011;65834;52.364;9.754;2023-09-08T12:02:06;9.02;;;4.30;;
76863;SDS011;65834;52.364;9.754;2023-09-08T12:04:35;9.23;;;3.60;;
76863;SDS011;65834;52.364;9.754;2023-09-08T12:07:05;9.52;;;3.80;;
76863;SDS011;65834;52.364;9.754;2023-09-08T12:09:36;9.85;;;3.67;;
76863;SDS011;65834;52.364;9.754;2023-09-08T12:12:06;9.38;;;3.80;;
76863;SDS011;65834;52.364;9.754;2023-09-08T12:14:40;8.00;;;3.72;;
76863;SDS011;65834;52.364;9.754;2023-09-08T12:17:16;8.60;;;3.63;;
76863;SDS011;65834;52.364;9.754;2023-09-08T12:19:46;9.23;;;3.50;;
76863;SDS011;65834;52.364;9.754;2023-09-08T12:22:16;9.20;;;3.80;;
76863;SDS011;65834;52.364;9.754;2023-09-08T12:24:49;11.57;;;4.35;;
76863;SDS011;65834;52.364;9.754;2023-09-08T12:27:29;9.02;;;3.78;;
76863;SDS011;65834;52.364;9.754;2023-09-08T12:29:59;9.25;;;3.67;;
76863;SDS011;65834;52.364;9.754;2023-09-08T12:32:34;7.32;;;3.60;;
76863;SDS011;65834;52.364;9.754;2023-09-08T12:35:05;8.75;;;3.53;;
76863;SDS011;65834;52.364;9.754;2023-09-08T12:37:35;9.50;;;3.72;;
76863;SDS011;65834;52.364;9.754;2023-09-08T12:40:08;9.20;;;3.80;;
76863;SDS011;65834;52.364;9.754;2023-09-08T12:42:39;8.60;;;3.50;;
76863;SDS011;65834;52.364;9.754;2023-09-08T12:45:24;9.60;;;3.78;;
76863;SDS011;65834;52.364;9.754;2023-09-08T12:47:58;8.90;;;3.33;;
76863;SDS011;65834;52.364;9.754;2023-09-08T12:50:30;6.40;;;2.78;;
76863;SDS011;65834;52.364;9.754;2023-09-08T12:52:59;6.97;;;3.13;;
76863;SDS011;65834;52.364;9.754;2023-09-08T12:55:29;6.97;;;2.90;;
76863;SDS011;65834;52.364;9.754;2023-09-08T12:57:59;7.30;;;3.00;;
76863;SDS011;65834;52.364;9.754;2023-09-08T13:00:28;8.48;;;3.40;;
76863;SDS011;65834;52.364;9.754;2023-09-08T13:03:01;9.20;;;3.90;;
76863;SDS011;65834;52.364;9.754;2023-09-08T13:05:31;7.30;;;3.20;;
76863;SDS011;65834;52.364;9.754;2023-09-08T13:08:00;8.65;;;3.35;;
76863;SDS011;65834;52.364;9.754;2023-09-08T13:10:42;9.70;;;3.38;;
76863;SDS011;65834;52.364;9.754;2023-09-08T13:13:12;9.73;;;3.40;;
76863;SDS011;65834;52.364;9.754;2023-09-08T13:15:41;8.48;;;2.97;;
76863;SDS011;65834;52.364;9.754;2023-09-08T13:18:13;7.10;;;2.80;;
76863;SDS011;65834;52.364;9.754;2023-09-08T13:23:13;8.30;;;3.33;;
76863;SDS011;65834;52.364;9.754;2023-09-08T13:25:42;7.85;;;3.00;;
76863;SDS011;65834;52.364;9.754;2023-09-08T13:28:12;8.48;;;3.22;;
76863;SDS011;65834;52.364;9.754;2023-09-08T13:30:42;7.72;;;3.22;;
76863;SDS011;65834;52.364;9.754;2023-09-08T13:33:14;6.80;;;3.00;;
76863;SDS011;65834;52.364;9.754;2023-09-08T13:38:13;6.97;;;2.63;;
76863;SDS011;65834;52.364;9.754;2023-09-08T13:40:43;5.35;;;2.50;;
76863;SDS011;65834;52.364;9.754;2023-09-08T13:43:12;6.82;;;2.30;;
76863;SDS011;65834;52.364;9.754;2023-09-08T13:45:42;4.22;;;1.77;;
76863;SDS011;65834;52.364;9.754;2023-09-08T13:48:14;4.63;;;1.90;;
76863;SDS011;65834;52.364;9.754;2023-09-08T13:50:44;5.10;;;2.00;;
76863;SDS011;65834;52.364;9.754;2023-09-08T13:53:16;4.03;;;2.00;;
76863;SDS011;65834;52.364;9.754;2023-09-08T13:55:46;6.00;;;2.10;;
76863;SDS011;65834;52.364;9.754;2023-09-08T13:58:18;5.88;;;2.20;;
76863;SDS011;65834;52.364;9.754;2023-09-08T14:00:51;6.03;;;2.35;;
76863;SDS011;65834;52.364;9.754;2023-09-08T14:03:28;5.22;;;2.30;;
76863;SDS011;65834;52.364;9.754;2023-09-08T14:06:17;5.70;;;2.53;;
76863;SDS011;65834;52.364;9.754;2023-09-08T14:08:55;7.07;;;2.67;;
76863;SDS011;65834;52.364;9.754;2023-09-08T14:11:28;9.50;;;2.85;;
76863;SDS011;65834;52.364;9.754;2023-09-08T14:14:18;7.80;;;2.60;;
76863;SDS011;65834;52.364;9.754;2023-09-08T14:16:48;6.20;;;2.53;;
76863;SDS011;65834;52.364;9.754;2023-09-08T14:19:20;7.55;;;2.60;;
76863;SDS011;65834;52.364;9.754;2023-09-08T14:21:49;8.45;;;2.70;;
76863;SDS011;65834;52.364;9.754;2023-09-08T14:24:19;9.63;;;2.90;;
76863;SDS011;65834;52.364;9.754;2023-09-08T14:26:48;8.82;;;2.70;;
76863;SDS011;65834;52.364;9.754;2023-09-08T14:29:20;6.25;;;2.55;;
76863;SDS011;65834;52.364;9.754;2023-09-08T14:31:51;7.20;;;2.80;;
76863;SDS011;65834;52.364;9.754;2023-09-08T14:34:23;8.02;;;3.00;;
76863;SDS011;65834;52.364;9.754;2023-09-08T14:39:22;6.82;;;2.63;;
76863;SDS011;65834;52.364;9.754;2023-09-08T14:41:51;8.30;;;2.75;;
76863;SDS011;65834;52.364;9.754;2023-09-08T14:44:21;7.00;;;2.90;;
76863;SDS011;65834;52.364;9.754;2023-09-08T14:46:51;6.43;;;2.72;;
76863;SDS011;65834;52.364;9.754;2023-09-08T14:49:24;6.45;;;3.05;;
76863;SDS011;65834;52.364;9.754;2023-09-08T14:54:23;10.52;;;2.85;;
76863;SDS011;65834;52.364;9.754;2023-09-08T14:56:52;7.95;;;3.13;;
76863;SDS011;65834;52.364;9.754;2023-09-08T14:59:22;7.30;;;2.70;;
76863;SDS011;65834;52.364;9.754;2023-09-08T15:01:52;7.68;;;3.42;;
76863;SDS011;65834;52.364;9.754;2023-09-08T15:04:25;11.25;;;3.47;;
76863;SDS011;65834;52.364;9.754;2023-09-08T15:06:54;7.95;;;3.22;;
76863;SDS011;65834;52.364;9.754;2023-09-08T15:09:24;9.77;;;3.47;;
76863;SDS011;65834;52.364;9.754;2023-09-08T15:11:54;9.70;;;3.55;;
76863;SDS011;65834;52.364;9.754;2023-09-08T15:14:23;8.80;;;3.50;;
76863;SDS011;65834;52.364;9.754;2023-09-08T15:16:53;9.27;;;3.60;;
76863;SDS011;65834;52.364;9.754;2023-09-08T15:19:25;9.07;;;3.38;;
76863;SDS011;65834;52.364;9.754;2023-09-08T15:21:55;8.38;;;3.33;;
76863;SDS011;65834;52.364;9.754;2023-09-08T15:24:24;10.27;;;3.75;;
76863;SDS011;65834;52.364;9.754;2023-09-08T15:26:54;9.43;;;3.03;;
76863;SDS011;65834;52.364;9.754;2023-09-08T15:29:26;9.40;;;3.70;;
76863;SDS011;65834;52.364;9.754;2023-09-08T15:31:56;11.63;;;3.50;;